createdAt,value
2019-04-29T00:00:12.519Z,31.90
2019-04-29T00:01:12.504Z,30.80
2019-04-29T00:02:12.501Z,32.10
2019-04-29T00:03:12.484Z,32.20
2019-04-29T00:04:12.498Z,31.30
2019-04-29T00:05:12.459Z,30.70
2019-04-29T00:06:12.454Z,29.50
2019-04-29T00:07:12.439Z,32.20
2019-04-29T00:08:12.427Z,35.80
2019-04-29T00:09:12.442Z,36.50
2019-04-29T00:10:12.411Z,35.20
2019-04-29T00:11:12.397Z,35.90
2019-04-29T00:12:12.392Z,34.10
2019-04-29T00:13:12.375Z,34.10
2019-04-29T00:14:12.395Z,33.80
2019-04-29T00:15:12.350Z,33.40
2019-04-29T00:16:12.346Z,32.00
2019-04-29T00:17:12.354Z,32.80
2019-04-29T00:18:12.320Z,32.40
2019-04-29T00:19:12.346Z,33.40
2019-04-29T00:20:12.306Z,32.60
2019-04-29T00:21:12.291Z,30.90
2019-04-29T00:22:12.283Z,29.10
2019-04-29T00:23:12.270Z,28.50
2019-04-29T00:24:12.294Z,27.30
2019-04-29T00:25:12.245Z,25.50
2019-04-29T00:26:12.235Z,28.80
2019-04-29T00:27:12.222Z,29.70
2019-04-29T00:28:12.217Z,30.00
2019-04-29T00:29:12.237Z,30.00
2019-04-29T00:30:12.195Z,28.90
2019-04-29T00:31:12.179Z,29.20
2019-04-29T00:32:12.167Z,30.00
2019-04-29T00:33:12.162Z,34.20
2019-04-29T00:34:12.200Z,35.70
2019-04-29T00:35:12.136Z,39.30
2019-04-29T00:36:12.127Z,42.40
2019-04-29T00:37:12.122Z,42.30
2019-04-29T00:38:12.106Z,42.40
2019-04-29T00:39:12.098Z,44.10
2019-04-29T00:40:12.110Z,44.60
2019-04-29T00:41:12.070Z,46.30
2019-04-29T00:42:12.058Z,49.30
2019-04-29T00:43:12.061Z,48.00
2019-04-29T00:44:12.042Z,49.90
2019-04-29T00:45:12.055Z,49.80
2019-04-29T00:46:12.032Z,50.50
2019-04-29T00:47:12.007Z,49.90
2019-04-29T00:48:11.999Z,51.00
2019-04-29T00:49:11.987Z,52.70
2019-04-29T00:50:12.008Z,56.10
2019-04-29T00:51:11.966Z,57.30
2019-04-29T00:52:11.959Z,62.60
2019-04-29T00:53:11.943Z,57.80
2019-04-29T00:54:12.336Z,58.20
2019-04-29T00:55:11.947Z,59.00
2019-04-29T00:56:11.913Z,62.10
2019-04-29T00:57:11.910Z,56.00
2019-04-29T00:58:11.887Z,55.10
2019-04-29T00:59:11.879Z,50.10
2019-04-29T01:00:11.901Z,52.40
2019-04-29T01:01:11.850Z,53.10
2019-04-29T01:02:11.843Z,48.00
2019-04-29T01:03:11.834Z,44.90
2019-04-29T01:04:11.845Z,47.90
2019-04-29T01:05:11.842Z,45.10
2019-04-29T01:06:11.854Z,43.80
2019-04-29T01:07:11.790Z,46.00
2019-04-29T01:08:11.781Z,43.90
2019-04-29T01:09:11.776Z,44.30
2019-04-29T01:10:11.799Z,45.30
2019-04-29T01:11:11.745Z,47.20
2019-04-29T01:12:11.736Z,49.60
2019-04-29T01:13:11.729Z,49.40
2019-04-29T01:14:11.721Z,49.20
2019-04-29T01:15:11.708Z,47.90
2019-04-29T01:16:11.719Z,44.40
2019-04-29T01:17:11.685Z,47.70
2019-04-29T01:18:11.673Z,50.20
2019-04-29T01:19:11.663Z,51.40
2019-04-29T01:20:11.654Z,53.10
2019-04-29T01:21:11.667Z,46.30
2019-04-29T01:22:11.637Z,44.70
2019-04-29T01:23:11.622Z,53.10
2019-04-29T01:24:11.610Z,52.20
2019-04-29T01:25:11.601Z,51.30
2019-04-29T01:26:11.617Z,49.70
2019-04-29T01:27:11.575Z,48.10
2019-04-29T01:28:11.566Z,48.40
2019-04-29T01:29:11.554Z,48.40
2019-04-29T01:30:11.542Z,49.00
2019-04-29T01:31:11.559Z,48.90
2019-04-29T01:32:11.523Z,48.70
2019-04-29T01:33:11.511Z,51.00
2019-04-29T01:34:11.502Z,54.60
2019-04-29T01:35:11.490Z,54.00
2019-04-29T01:36:11.508Z,52.60
2019-04-29T01:37:11.466Z,53.00
2019-04-29T01:38:11.470Z,51.30
2019-04-29T01:39:11.448Z,49.60
2019-04-29T01:40:11.436Z,48.60
2019-04-29T01:41:11.464Z,49.90
2019-04-29T01:42:11.416Z,45.10
2019-04-29T01:43:11.404Z,48.00
2019-04-29T01:44:11.397Z,51.50
2019-04-29T01:45:11.383Z,55.20
2019-04-29T01:46:11.402Z,59.80
2019-04-29T01:47:11.369Z,60.40
2019-04-29T01:48:11.347Z,57.50
2019-04-29T01:49:11.343Z,53.40
2019-04-29T01:50:11.326Z,56.40
2019-04-29T01:51:11.358Z,57.60
2019-04-29T01:52:11.308Z,55.80
2019-04-29T01:53:11.303Z,56.70
2019-04-29T01:54:11.286Z,54.90
2019-04-29T01:55:11.276Z,54.90
2019-04-29T01:56:11.262Z,57.10
2019-04-29T01:57:11.283Z,60.30
2019-04-29T01:58:11.244Z,61.70
2019-04-29T01:59:11.230Z,63.20
2019-04-29T02:00:12.380Z,57.50
2019-04-29T02:01:11.213Z,56.90
2019-04-29T02:02:11.230Z,54.70
2019-04-29T02:03:11.190Z,60.90
2019-04-29T02:04:11.186Z,59.50
2019-04-29T02:05:11.166Z,61.40
2019-04-29T02:06:11.161Z,67.60
2019-04-29T02:07:11.171Z,75.30
2019-04-29T02:08:11.131Z,76.70
2019-04-29T02:09:11.126Z,71.90
2019-04-29T02:10:11.133Z,67.90
2019-04-29T02:11:11.112Z,67.60
2019-04-29T02:12:11.113Z,68.90
2019-04-29T02:13:11.086Z,70.50
2019-04-29T02:14:11.070Z,70.90
2019-04-29T02:15:11.063Z,72.30
2019-04-29T02:16:11.046Z,75.60
2019-04-29T02:17:11.181Z,78.40
2019-04-29T02:18:11.028Z,80.90
2019-04-29T02:19:11.024Z,80.30
2019-04-29T02:20:11.004Z,82.60
2019-04-29T02:21:10.997Z,89.20
2019-04-29T02:22:10.982Z,86.20
2019-04-29T02:23:11.000Z,82.80
2019-04-29T02:24:10.963Z,77.80
2019-04-29T02:25:10.951Z,78.70
2019-04-29T02:26:10.942Z,79.60
2019-04-29T02:27:10.930Z,85.30
2019-04-29T02:28:10.950Z,84.30
2019-04-29T02:29:10.906Z,77.80
2019-04-29T02:30:10.904Z,81.90
2019-04-29T02:31:10.886Z,83.20
2019-04-29T02:32:10.897Z,75.80
2019-04-29T02:33:10.895Z,66.30
2019-04-29T02:34:10.858Z,71.40
2019-04-29T02:35:10.844Z,76.50
2019-04-29T02:36:10.839Z,71.10
2019-04-29T02:37:10.826Z,67.70
2019-04-29T02:38:10.845Z,67.40
2019-04-29T02:39:10.799Z,64.50
2019-04-29T02:40:10.789Z,73.30
2019-04-29T02:41:10.789Z,66.50
2019-04-29T02:42:10.767Z,63.50
2019-04-29T02:43:10.785Z,65.90
2019-04-29T02:44:10.751Z,58.30
2019-04-29T02:45:10.738Z,63.90
2019-04-29T02:46:10.722Z,58.90
2019-04-29T02:47:10.714Z,63.30
2019-04-29T02:48:10.734Z,63.80
2019-04-29T02:49:10.693Z,63.40
2019-04-29T02:50:10.687Z,63.20
2019-04-29T02:51:10.671Z,59.90
2019-04-29T02:52:10.660Z,67.20
2019-04-29T02:53:10.678Z,65.60
2019-04-29T02:54:10.641Z,65.50
2019-04-29T02:55:10.643Z,62.30
2019-04-29T02:56:10.617Z,65.70
2019-04-29T02:57:10.615Z,65.20
2019-04-29T02:58:12.657Z,62.10
2019-04-29T02:59:10.589Z,62.60
2019-04-29T03:00:10.577Z,62.50
2019-04-29T03:01:10.597Z,60.90
2019-04-29T03:02:10.616Z,65.20
2019-04-29T03:03:10.713Z,62.40
2019-04-29T03:04:10.535Z,61.90
2019-04-29T03:05:10.562Z,59.90
2019-04-29T03:06:10.612Z,60.10
2019-04-29T03:07:10.502Z,62.50
2019-04-29T03:08:10.488Z,65.80
2019-04-29T03:09:10.505Z,66.20
2019-04-29T03:10:10.466Z,68.70
2019-04-29T03:11:10.479Z,73.90
2019-04-29T03:12:10.476Z,72.10
2019-04-29T03:13:10.443Z,76.30
2019-04-29T03:14:10.423Z,84.30
2019-04-29T03:15:10.413Z,72.20
2019-04-29T03:16:10.414Z,66.70
2019-04-29T03:17:10.421Z,71.30
2019-04-29T03:18:10.381Z,83.70
2019-04-29T03:19:10.375Z,73.00
2019-04-29T03:20:10.360Z,76.40
2019-04-29T03:21:10.348Z,75.20
2019-04-29T03:22:10.371Z,72.40
2019-04-29T03:23:10.362Z,75.50
2019-04-29T03:24:10.317Z,71.30
2019-04-29T03:25:10.305Z,65.70
2019-04-29T03:26:10.305Z,70.00
2019-04-29T03:27:10.313Z,66.70
2019-04-29T03:28:10.272Z,70.50
2019-04-29T03:29:10.263Z,70.90
2019-04-29T03:30:10.252Z,72.20
2019-04-29T03:31:10.249Z,69.10
2019-04-29T03:32:10.283Z,73.90
2019-04-29T03:33:10.235Z,73.70
2019-04-29T03:34:10.211Z,74.10
2019-04-29T03:35:10.238Z,75.60
2019-04-29T03:36:10.188Z,74.50
2019-04-29T03:37:10.210Z,72.50
2019-04-29T03:38:10.171Z,71.40
2019-04-29T03:39:10.156Z,71.20
2019-04-29T03:40:10.151Z,72.30
2019-04-29T03:41:10.138Z,70.70
2019-04-29T03:42:10.151Z,70.40
2019-04-29T03:43:10.113Z,71.30
2019-04-29T03:44:10.106Z,66.50
2019-04-29T03:45:10.095Z,69.60
2019-04-29T03:46:10.081Z,69.10
2019-04-29T03:47:10.097Z,64.00
2019-04-29T03:48:10.064Z,69.10
2019-04-29T03:49:10.048Z,62.30
2019-04-29T03:50:10.037Z,70.80
2019-04-29T03:51:10.026Z,73.80
2019-04-29T03:52:10.060Z,69.50
2019-04-29T03:53:10.006Z,66.10
2019-04-29T03:54:09.993Z,72.00
2019-04-29T03:55:09.984Z,68.80
2019-04-29T03:56:09.974Z,70.90
2019-04-29T03:57:09.965Z,71.00
2019-04-29T03:58:09.980Z,71.20
2019-04-29T03:59:09.942Z,72.10
2019-04-29T04:00:09.928Z,70.80
2019-04-29T04:01:09.938Z,69.30
2019-04-29T04:02:09.907Z,73.40
2019-04-29T04:03:09.926Z,69.80
2019-04-29T04:04:09.892Z,73.60
2019-04-29T04:05:09.874Z,71.40
2019-04-29T04:06:09.865Z,68.90
2019-04-29T04:07:09.852Z,70.60
2019-04-29T04:08:09.896Z,72.60
2019-04-29T04:09:09.846Z,73.60
2019-04-29T04:10:09.827Z,73.30
2019-04-29T04:11:09.819Z,77.50
2019-04-29T04:12:09.800Z,71.90
2019-04-29T04:13:09.820Z,73.60
2019-04-29T04:14:09.780Z,74.50
2019-04-29T04:15:09.779Z,74.90
2019-04-29T04:16:09.756Z,70.10
2019-04-29T04:17:09.748Z,74.30
2019-04-29T04:18:09.759Z,78.90
2019-04-29T04:19:09.729Z,71.20
2019-04-29T04:20:09.721Z,71.10
2019-04-29T04:21:09.705Z,70.60
2019-04-29T04:22:09.693Z,69.20
2019-04-29T04:23:09.710Z,76.80
2019-04-29T04:24:09.680Z,75.10
2019-04-29T04:25:09.661Z,69.50
2019-04-29T04:26:09.651Z,71.70
2019-04-29T04:27:09.641Z,69.30
2019-04-29T04:28:09.653Z,70.60
2019-04-29T04:29:09.615Z,68.80
2019-04-29T04:30:09.608Z,71.00
2019-04-29T04:31:09.598Z,66.90
2019-04-29T04:32:09.585Z,64.70
2019-04-29T04:33:09.713Z,63.60
2019-04-29T04:34:09.689Z,64.40
2019-04-29T04:35:09.552Z,63.00
2019-04-29T04:36:09.555Z,61.60
2019-04-29T04:37:09.535Z,65.80
2019-04-29T04:38:09.556Z,63.00
2019-04-29T04:39:09.523Z,63.30
2019-04-29T04:40:09.500Z,63.90
2019-04-29T04:41:09.504Z,65.00
2019-04-29T04:42:09.476Z,63.40
2019-04-29T04:43:09.502Z,63.00
2019-04-29T04:44:09.454Z,61.20
2019-04-29T04:45:09.446Z,62.10
2019-04-29T04:46:09.435Z,61.50
2019-04-29T04:47:09.424Z,63.10
2019-04-29T04:48:09.435Z,62.70
2019-04-29T04:49:09.405Z,61.20
2019-04-29T04:50:09.392Z,62.70
2019-04-29T04:51:09.408Z,60.00
2019-04-29T04:52:09.371Z,61.60
2019-04-29T04:53:09.392Z,60.40
2019-04-29T04:54:09.353Z,62.30
2019-04-29T04:55:09.335Z,58.70
2019-04-29T04:56:09.327Z,57.50
2019-04-29T04:57:09.316Z,56.20
2019-04-29T04:58:09.335Z,56.60
2019-04-29T04:59:09.301Z,54.60
2019-04-29T05:00:09.283Z,58.10
2019-04-29T05:01:09.307Z,57.60
2019-04-29T05:02:09.260Z,56.00
2019-04-29T05:03:09.276Z,54.20
2019-04-29T05:04:09.239Z,54.80
2019-04-29T05:05:09.230Z,53.20
2019-04-29T05:06:09.226Z,51.80
2019-04-29T05:07:09.209Z,54.70
2019-04-29T05:08:09.221Z,51.20
2019-04-29T05:09:09.189Z,51.20
2019-04-29T05:10:09.174Z,50.90
2019-04-29T05:11:09.166Z,52.50
2019-04-29T05:12:09.164Z,51.60
2019-04-29T05:13:09.170Z,49.50
2019-04-29T05:14:09.120Z,51.10
2019-04-29T05:15:09.119Z,49.20
2019-04-29T05:16:09.110Z,48.20
2019-04-29T05:17:09.100Z,47.10
2019-04-29T05:18:09.115Z,46.50
2019-04-29T05:19:09.078Z,47.00
2019-04-29T05:20:09.069Z,46.00
2019-04-29T05:21:09.088Z,46.20
2019-04-29T05:22:09.046Z,47.60
2019-04-29T05:23:09.071Z,45.20
2019-04-29T05:24:09.038Z,46.40
2019-04-29T05:25:09.018Z,45.90
2019-04-29T05:26:09.007Z,45.90
2019-04-29T05:27:08.991Z,44.90
2019-04-29T05:28:09.018Z,45.20
2019-04-29T05:29:08.977Z,45.10
2019-04-29T05:30:08.960Z,46.50
2019-04-29T05:31:08.947Z,45.50
2019-04-29T05:32:08.949Z,45.80
2019-04-29T05:33:08.957Z,44.60
2019-04-29T05:34:08.915Z,43.00
2019-04-29T05:35:08.907Z,42.30
2019-04-29T05:36:08.900Z,44.00
2019-04-29T05:37:08.884Z,43.00
2019-04-29T05:38:08.938Z,44.00
2019-04-29T05:39:08.861Z,43.00
2019-04-29T05:40:08.853Z,42.60
2019-04-29T05:41:08.840Z,44.10
2019-04-29T05:42:16.205Z,42.20
2019-04-29T05:43:10.017Z,43.60
2019-04-29T05:44:08.812Z,43.20
2019-04-29T05:45:08.798Z,42.70
2019-04-29T05:46:08.784Z,40.80
2019-04-29T05:47:08.773Z,42.00
2019-04-29T05:48:08.766Z,40.00
2019-04-29T05:49:09.024Z,41.10
2019-04-29T05:50:11.779Z,39.90
2019-04-29T05:51:09.728Z,39.30
2019-04-29T05:52:08.725Z,37.70
2019-04-29T05:53:11.556Z,37.60
2019-04-29T05:54:09.717Z,39.40
2019-04-29T05:55:09.481Z,38.70
2019-04-29T05:56:08.676Z,38.20
2019-04-29T05:57:08.909Z,36.80
2019-04-29T05:58:08.663Z,36.80
2019-04-29T05:59:12.689Z,36.10
2019-04-29T06:00:09.635Z,35.70
2019-04-29T06:01:08.625Z,35.80
2019-04-29T06:02:08.613Z,34.90
2019-04-29T06:03:08.603Z,34.80
2019-04-29T06:04:11.588Z,33.00
2019-04-29T06:05:09.575Z,33.10
2019-04-29T06:06:12.051Z,33.60
2019-04-29T06:07:08.743Z,33.40
2019-04-29T06:08:08.811Z,31.40
2019-04-29T06:09:11.597Z,30.60
2019-04-29T06:10:09.552Z,30.80
2019-04-29T06:11:08.568Z,30.80
2019-04-29T06:12:08.546Z,32.20
2019-04-29T06:13:08.525Z,31.20
2019-04-29T06:14:08.508Z,30.20
2019-04-29T06:15:08.486Z,29.20
2019-04-29T06:16:08.567Z,28.80
2019-04-29T06:17:08.449Z,27.80
2019-04-29T06:18:08.448Z,28.10
2019-04-29T06:19:08.462Z,28.40
2019-04-29T06:20:08.419Z,29.50
2019-04-29T06:21:09.687Z,30.20
2019-04-29T06:22:08.394Z,28.70
2019-04-29T06:23:08.383Z,28.40
2019-04-29T06:24:08.375Z,28.10
2019-04-29T06:25:08.387Z,28.20
2019-04-29T06:26:08.351Z,28.50
2019-04-29T06:27:08.350Z,28.10
2019-04-29T06:28:08.330Z,28.10
2019-04-29T06:29:08.332Z,28.00
2019-04-29T06:30:08.336Z,28.80
2019-04-29T06:31:08.300Z,29.20
2019-04-29T06:32:08.288Z,29.00
2019-04-29T06:33:08.276Z,28.00
2019-04-29T06:34:08.269Z,29.20
2019-04-29T06:35:10.527Z,27.90
2019-04-29T06:36:09.244Z,29.10
2019-04-29T06:37:08.244Z,28.70
2019-04-29T06:38:08.228Z,27.50
2019-04-29T06:39:08.213Z,27.20
2019-04-29T06:40:08.233Z,27.50
2019-04-29T06:41:09.688Z,27.50
2019-04-29T06:42:08.179Z,27.20
2019-04-29T06:43:08.166Z,27.50
2019-04-29T06:44:15.775Z,27.20
2019-04-29T06:45:09.174Z,27.10
2019-04-29T06:46:08.134Z,25.10
2019-04-29T06:47:08.130Z,25.20
2019-04-29T06:48:08.118Z,25.90
2019-04-29T06:49:10.611Z,26.00
2019-04-29T06:50:08.119Z,25.60
2019-04-29T06:51:08.087Z,27.10
2019-04-29T06:52:08.095Z,25.80
2019-04-29T06:53:08.059Z,24.70
2019-04-29T06:54:08.047Z,25.90
2019-04-29T06:55:08.068Z,25.70
2019-04-29T06:56:09.206Z,25.30
2019-04-29T06:57:08.020Z,25.80
2019-04-29T06:58:08.007Z,25.80
2019-04-29T06:59:11.913Z,25.10
2019-04-29T07:00:09.246Z,25.40
2019-04-29T07:01:07.973Z,24.70
2019-04-29T07:02:09.478Z,25.10
2019-04-29T07:03:08.946Z,25.70
2019-04-29T07:04:07.938Z,24.50
2019-04-29T07:05:07.975Z,25.60
2019-04-29T07:06:07.917Z,24.30
2019-04-29T07:07:07.908Z,24.70
2019-04-29T07:08:07.893Z,24.20
2019-04-29T07:09:07.886Z,24.60
2019-04-29T07:10:07.880Z,25.10
2019-04-29T07:11:07.930Z,25.10
2019-04-29T07:12:08.320Z,24.90
2019-04-29T07:13:07.841Z,25.10
2019-04-29T07:14:07.834Z,24.00
2019-04-29T07:15:12.125Z,25.20
2019-04-29T07:16:08.835Z,24.90
2019-04-29T07:17:07.798Z,25.40
2019-04-29T07:18:07.786Z,23.80
2019-04-29T07:19:07.775Z,25.20
2019-04-29T07:20:07.770Z,26.20
2019-04-29T07:21:11.781Z,25.80
2019-04-29T07:22:08.745Z,25.60
2019-04-29T07:23:07.730Z,25.10
2019-04-29T07:24:07.727Z,24.00
2019-04-29T07:25:07.712Z,24.50
2019-04-29T07:26:07.732Z,26.10
2019-04-29T07:27:07.696Z,25.10
2019-04-29T07:28:07.683Z,23.50
2019-04-29T07:29:07.675Z,24.10
2019-04-29T07:30:08.387Z,23.50
2019-04-29T07:31:10.149Z,24.70
2019-04-29T07:32:09.449Z,24.60
2019-04-29T07:33:07.666Z,23.20
2019-04-29T07:34:08.506Z,25.50
2019-04-29T07:35:09.762Z,24.30
2019-04-29T07:36:11.249Z,22.60
2019-04-29T07:37:07.586Z,22.90
2019-04-29T07:38:08.625Z,23.90
2019-04-29T07:39:07.559Z,23.10
2019-04-29T07:40:07.979Z,23.50
2019-04-29T07:41:09.914Z,23.40
2019-04-29T07:42:07.527Z,23.40
2019-04-29T07:43:09.264Z,22.30
2019-04-29T07:44:07.510Z,22.00
2019-04-29T07:45:07.498Z,22.30
2019-04-29T07:46:07.523Z,20.90
2019-04-29T07:47:07.475Z,21.10
2019-04-29T07:48:07.720Z,21.60
2019-04-29T07:49:07.448Z,20.90
2019-04-29T07:50:07.510Z,20.90
2019-04-29T07:51:07.428Z,21.80
2019-04-29T07:52:09.746Z,21.60
2019-04-29T07:53:08.408Z,20.70
2019-04-29T07:54:11.060Z,20.90
2019-04-29T07:55:08.412Z,21.30
2019-04-29T07:56:08.227Z,21.00
2019-04-29T07:57:07.397Z,19.90
2019-04-29T07:58:07.351Z,19.10
2019-04-29T07:59:07.352Z,20.60
2019-04-29T08:00:08.477Z,19.80
2019-04-29T08:01:08.323Z,19.90
2019-04-29T08:02:07.335Z,19.10
2019-04-29T08:03:07.302Z,18.10
2019-04-29T08:04:07.298Z,18.00
2019-04-29T08:05:07.275Z,17.50
2019-04-29T08:06:07.263Z,15.80
2019-04-29T08:07:07.284Z,16.70
2019-04-29T08:08:07.242Z,16.30
2019-04-29T08:09:07.990Z,17.10
2019-04-29T08:10:22.766Z,16.60
2019-04-29T08:11:08.211Z,15.70
2019-04-29T08:12:07.236Z,15.10
2019-04-29T08:13:07.191Z,15.80
2019-04-29T08:14:07.179Z,14.90
2019-04-29T08:15:08.044Z,15.60
2019-04-29T08:16:07.165Z,14.80
2019-04-29T08:17:07.196Z,14.30
2019-04-29T08:18:11.199Z,14.80
2019-04-29T08:19:08.127Z,13.90
2019-04-29T08:20:07.115Z,13.90
2019-04-29T08:21:10.290Z,13.50
2019-04-29T08:22:08.402Z,13.80
2019-04-29T08:23:07.080Z,14.00
2019-04-29T08:24:07.073Z,14.00
2019-04-29T08:25:07.058Z,13.20
2019-04-29T08:26:07.049Z,12.50
2019-04-29T08:27:07.035Z,13.30
2019-04-29T08:28:07.054Z,14.00
2019-04-29T08:29:07.017Z,11.90
2019-04-29T08:30:11.321Z,11.70
2019-04-29T08:31:08.004Z,11.90
2019-04-29T08:32:06.985Z,11.60
2019-04-29T08:33:07.549Z,12.30
2019-04-29T08:34:06.962Z,12.10
2019-04-29T08:35:06.951Z,12.20
2019-04-29T08:36:06.939Z,12.30
2019-04-29T08:37:06.932Z,12.20
2019-04-29T08:38:06.954Z,13.10
2019-04-29T08:39:08.783Z,13.10
2019-04-29T08:40:15.877Z,12.80
2019-04-29T08:41:07.916Z,13.00
2019-04-29T08:42:09.113Z,12.60
2019-04-29T08:43:06.865Z,13.30
2019-04-29T08:44:15.757Z,13.30
2019-04-29T08:45:07.847Z,13.70
2019-04-29T08:46:06.860Z,13.40
2019-04-29T08:47:06.822Z,13.80
2019-04-29T08:48:06.810Z,13.00
2019-04-29T08:49:07.783Z,13.80
2019-04-29T08:50:06.793Z,13.40
2019-04-29T08:51:06.809Z,13.70
2019-04-29T08:52:06.773Z,12.80
2019-04-29T08:53:06.756Z,13.20
2019-04-29T08:54:06.750Z,13.20
2019-04-29T08:55:06.744Z,12.80
2019-04-29T08:56:10.160Z,11.80
2019-04-29T08:57:07.728Z,12.20
2019-04-29T08:58:10.724Z,11.80
2019-04-29T08:59:06.693Z,11.50
2019-04-29T09:00:06.684Z,11.20
2019-04-29T09:01:06.715Z,11.40
2019-04-29T09:02:10.309Z,11.20
2019-04-29T09:03:06.648Z,11.20
2019-04-29T09:04:06.636Z,10.80
2019-04-29T09:05:10.863Z,11.00
2019-04-29T09:06:06.644Z,11.30
2019-04-29T09:07:12.643Z,11.30
2019-04-29T09:08:07.648Z,12.00
2019-04-29T09:09:10.632Z,11.50
2019-04-29T09:10:07.578Z,11.80
2019-04-29T09:11:08.253Z,11.50
2019-04-29T09:12:07.544Z,12.00
2019-04-29T09:13:06.548Z,11.90
2019-04-29T09:14:06.537Z,12.30
2019-04-29T09:15:06.518Z,12.10
2019-04-29T09:16:06.537Z,13.30
2019-04-29T09:17:19.852Z,12.40
2019-04-29T09:18:07.486Z,11.10
2019-04-29T09:19:06.475Z,11.50
2019-04-29T09:20:06.462Z,12.50
2019-04-29T09:21:06.488Z,12.60
2019-04-29T09:22:06.446Z,12.60
2019-04-29T09:23:08.103Z,11.60
2019-04-29T09:24:06.421Z,11.90
2019-04-29T09:25:06.417Z,12.20
2019-04-29T09:26:06.427Z,11.90
2019-04-29T09:27:09.607Z,11.70
2019-04-29T09:28:06.375Z,12.10
2019-04-29T09:29:06.372Z,11.90
2019-04-29T09:30:06.359Z,12.20
2019-04-29T09:31:06.386Z,11.60
2019-04-29T09:32:06.332Z,11.80
2019-04-29T09:33:08.896Z,11.90
2019-04-29T09:34:07.312Z,11.70
2019-04-29T09:35:06.303Z,11.40
2019-04-29T09:36:09.606Z,11.80
2019-04-29T09:37:07.316Z,11.40
2019-04-29T09:38:06.276Z,12.00
2019-04-29T09:39:06.262Z,11.60
2019-04-29T09:40:06.246Z,11.90
2019-04-29T09:41:06.238Z,12.20
2019-04-29T09:42:08.212Z,11.60
2019-04-29T09:43:15.357Z,11.20
2019-04-29T09:44:07.207Z,12.10
2019-04-29T09:45:06.200Z,12.10
2019-04-29T09:46:06.192Z,11.20
2019-04-29T09:47:08.590Z,12.40
2019-04-29T09:48:06.161Z,13.40
2019-04-29T09:49:06.148Z,13.00
2019-04-29T09:50:06.148Z,12.90
2019-04-29T09:51:16.666Z,12.20
2019-04-29T09:52:07.146Z,12.30
2019-04-29T09:53:06.109Z,12.20
2019-04-29T09:54:09.679Z,12.10
2019-04-29T09:55:07.089Z,11.40
2019-04-29T09:56:06.088Z,12.50
2019-04-29T09:57:06.093Z,11.60
2019-04-29T09:58:06.054Z,11.60
2019-04-29T09:59:06.044Z,12.00
2019-04-29T10:00:07.121Z,11.80
2019-04-29T10:01:06.025Z,12.30
2019-04-29T10:02:06.037Z,12.50
2019-04-29T10:03:05.999Z,12.20
2019-04-29T10:04:05.983Z,12.40
2019-04-29T10:05:05.977Z,12.40
2019-04-29T10:06:05.971Z,11.30
2019-04-29T10:07:05.981Z,11.80
2019-04-29T10:08:05.941Z,12.30
2019-04-29T10:09:05.931Z,11.60
2019-04-29T10:10:06.869Z,11.30
2019-04-29T10:11:05.913Z,12.20
2019-04-29T10:12:05.923Z,11.30
2019-04-29T10:13:05.888Z,12.00
2019-04-29T10:14:05.880Z,11.40
2019-04-29T10:15:05.867Z,11.40
2019-04-29T10:16:05.861Z,11.50
2019-04-29T10:17:05.878Z,11.70
2019-04-29T10:18:05.834Z,11.50
2019-04-29T10:19:07.010Z,12.20
2019-04-29T10:20:08.053Z,12.60
2019-04-29T10:21:05.799Z,13.00
2019-04-29T10:22:05.826Z,12.90
2019-04-29T10:23:05.794Z,13.30
2019-04-29T10:24:05.772Z,12.90
2019-04-29T10:25:05.755Z,13.00
2019-04-29T10:26:05.747Z,13.20
2019-04-29T10:27:07.295Z,13.50
2019-04-29T10:28:05.729Z,13.40
2019-04-29T10:29:05.711Z,13.40
2019-04-29T10:30:05.709Z,14.20
2019-04-29T10:31:05.696Z,14.00
2019-04-29T10:32:06.894Z,13.50
2019-04-29T10:33:05.671Z,14.80
2019-04-29T10:34:05.664Z,13.70
2019-04-29T10:35:08.686Z,13.50
2019-04-29T10:36:05.634Z,13.20
2019-04-29T10:37:05.655Z,12.90
2019-04-29T10:38:05.638Z,13.00
2019-04-29T10:39:05.613Z,13.60
2019-04-29T10:40:11.465Z,13.50
2019-04-29T10:41:06.589Z,13.30
2019-04-29T10:42:05.608Z,13.70
2019-04-29T10:43:05.563Z,13.60
2019-04-29T10:44:05.555Z,12.70
2019-04-29T10:45:05.545Z,12.40
2019-04-29T10:46:05.567Z,12.70
2019-04-29T10:47:05.525Z,11.80
2019-04-29T10:48:05.516Z,11.40
2019-04-29T10:49:05.516Z,9.70
2019-04-29T10:50:05.491Z,9.40
2019-04-29T10:51:05.510Z,8.00
2019-04-29T10:52:05.470Z,8.80
2019-04-29T10:53:05.456Z,9.90
2019-04-29T10:54:05.456Z,9.50
2019-04-29T10:55:05.435Z,9.90
2019-04-29T10:56:06.886Z,8.60
2019-04-29T10:57:05.423Z,8.90
2019-04-29T10:58:05.407Z,8.20
2019-04-29T10:59:09.104Z,8.50
2019-04-29T11:00:06.383Z,7.90
2019-04-29T11:01:05.397Z,7.20
2019-04-29T11:02:13.471Z,8.10
2019-04-29T11:03:06.354Z,7.40
2019-04-29T11:04:05.340Z,7.80
2019-04-29T11:05:07.872Z,7.30
2019-04-29T11:06:06.343Z,7.40
2019-04-29T11:07:13.961Z,7.40
2019-04-29T11:08:06.298Z,7.20
2019-04-29T11:09:05.283Z,6.70
2019-04-29T11:10:07.973Z,6.80
2019-04-29T11:11:05.296Z,6.70
2019-04-29T11:12:05.256Z,8.00
2019-04-29T11:13:05.250Z,7.10
2019-04-29T11:14:05.249Z,7.30
2019-04-29T11:15:05.225Z,7.20
2019-04-29T11:16:05.250Z,7.30
2019-04-29T11:17:05.214Z,7.40
2019-04-29T11:18:05.189Z,7.30
2019-04-29T11:19:05.842Z,7.50
2019-04-29T11:20:05.185Z,7.20
2019-04-29T11:21:05.208Z,7.80
2019-04-29T11:22:05.219Z,7.20
2019-04-29T11:23:09.814Z,7.00
2019-04-29T11:24:06.130Z,7.40
2019-04-29T11:25:05.113Z,7.20
2019-04-29T11:26:05.103Z,7.10
2019-04-29T11:27:11.891Z,7.40
2019-04-29T11:28:06.076Z,7.40
2019-04-29T11:29:09.053Z,6.80
2019-04-29T11:30:05.064Z,6.80
2019-04-29T11:31:05.043Z,7.00
2019-04-29T11:32:05.068Z,7.30
2019-04-29T11:33:06.242Z,6.90
2019-04-29T11:34:05.497Z,7.50
2019-04-29T11:35:05.003Z,7.10
2019-04-29T11:36:05.919Z,7.30
2019-04-29T11:37:05.015Z,6.90
2019-04-29T11:38:04.978Z,7.00
2019-04-29T11:39:08.907Z,6.70
2019-04-29T11:40:05.947Z,6.30
2019-04-29T11:41:04.940Z,6.60
2019-04-29T11:42:04.959Z,6.40
2019-04-29T11:43:04.925Z,6.50
2019-04-29T11:44:04.907Z,6.40
2019-04-29T11:45:04.899Z,6.70
2019-04-29T11:46:04.893Z,6.60
2019-04-29T11:47:04.909Z,6.50
2019-04-29T11:48:04.869Z,6.40
2019-04-29T11:49:04.859Z,5.90
2019-04-29T11:50:07.445Z,5.30
2019-04-29T11:51:05.834Z,5.70
2019-04-29T11:52:09.718Z,5.90
2019-04-29T11:53:05.820Z,5.80
2019-04-29T11:54:08.340Z,5.50
2019-04-29T11:55:05.794Z,5.60
2019-04-29T11:56:04.778Z,5.80
2019-04-29T11:57:04.800Z,5.70
2019-04-29T11:58:04.763Z,5.70
2019-04-29T11:59:04.766Z,5.80
2019-04-29T12:00:04.736Z,5.50
2019-04-29T12:01:08.352Z,5.70
2019-04-29T12:02:04.745Z,6.00
2019-04-29T12:03:04.704Z,6.00
2019-04-29T12:04:04.696Z,5.90
2019-04-29T12:05:08.730Z,5.90
2019-04-29T12:06:05.675Z,5.50
2019-04-29T12:07:04.704Z,6.00
2019-04-29T12:08:11.410Z,5.90
2019-04-29T12:09:06.786Z,6.20
2019-04-29T12:10:06.592Z,6.10
2019-04-29T12:11:07.002Z,6.20
2019-04-29T12:12:07.789Z,6.10
2019-04-29T12:13:05.642Z,6.20
2019-04-29T12:14:04.719Z,6.30
2019-04-29T12:15:04.575Z,6.70
2019-04-29T12:16:04.578Z,6.80
2019-04-29T12:17:04.551Z,7.00
2019-04-29T12:18:04.570Z,6.90
2019-04-29T12:19:04.534Z,6.80
2019-04-29T12:20:04.521Z,7.10
2019-04-29T12:21:04.507Z,7.00
2019-04-29T12:22:04.970Z,6.50
2019-04-29T12:23:04.511Z,5.80
2019-04-29T12:24:04.482Z,5.90
2019-04-29T12:25:04.467Z,5.40
2019-04-29T12:26:05.012Z,6.20
2019-04-29T12:27:04.442Z,5.90
2019-04-29T12:28:18.125Z,6.00
2019-04-29T12:29:05.423Z,5.80
2019-04-29T12:30:04.424Z,5.60
2019-04-29T12:31:05.653Z,5.60
2019-04-29T12:32:05.391Z,5.70
2019-04-29T12:33:04.420Z,5.70
2019-04-29T12:34:04.366Z,6.30
2019-04-29T12:35:04.384Z,6.00
2019-04-29T12:36:05.201Z,5.90
2019-04-29T12:37:04.339Z,6.20
2019-04-29T12:38:06.002Z,6.10
2019-04-29T12:39:04.314Z,6.20
2019-04-29T12:40:04.300Z,6.40
2019-04-29T12:41:04.286Z,6.30
2019-04-29T12:42:04.695Z,6.10
2019-04-29T12:43:04.274Z,6.20
2019-04-29T12:44:04.286Z,5.80
2019-04-29T12:45:04.247Z,5.80
2019-04-29T12:46:04.237Z,5.70
2019-04-29T12:47:04.238Z,6.00
2019-04-29T12:48:06.451Z,6.30
2019-04-29T12:49:08.676Z,5.70
2019-04-29T12:50:05.205Z,5.90
2019-04-29T12:51:04.179Z,6.20
2019-04-29T12:52:04.168Z,6.10
2019-04-29T12:53:04.160Z,6.10
2019-04-29T12:54:04.170Z,6.50
2019-04-29T12:55:19.294Z,6.50
2019-04-29T12:56:07.144Z,6.60